Time;durP1;ratioP1;P1;durP2;ratioP2;P2;SDS_P1;SDS_P2;PMS_P1;PMS_P2;Temp;Humidity;BMP_temperature;BMP_pressure;BME280_temperature;BME280_humidity;BME280_pressure;Samples;Min_cycle;Max_cycle;Signal;HPM_P1;HPM_P2
2021/12/03 00:01:27;;;;;;;14.75;9.45;;;0.20;99.90;;;;;;5055737;28;20519;-73
2021/12/03 00:04:00;;;;;;;14.43;8.52;;;0.20;99.90;;;;;;5056688;28;20124;-73
2021/12/03 00:06:26;;;;;;;13.25;7.18;;;0.20;99.90;;;;;;5055571;28;20148;-73
2021/12/03 00:08:54;;;;;;;11.38;7.30;;;0.20;99.90;;;;;;5054957;28;20647;-73
2021/12/03 00:11:25;;;;;;;12.60;8.48;;;0.30;99.90;;;;;;5055445;28;20083;-73
2021/12/03 00:13:57;;;;;;;13.85;8.43;;;0.30;99.90;;;;;;5056626;28;20518;-73
2021/12/03 00:16:24;;;;;;;18.63;8.43;;;0.30;99.90;;;;;;5056716;28;20099;-73
2021/12/03 00:18:56;;;;;;;12.05;7.35;;;0.30;99.90;;;;;;5056387;28;20064;-74
2021/12/03 00:21:25;;;;;;;11.43;7.57;;;0.30;99.90;;;;;;5056554;28;20119;-73
2021/12/03 00:23:53;;;;;;;13.45;7.28;;;0.20;99.90;;;;;;5055273;28;20076;-73
2021/12/03 00:26:25;;;;;;;11.85;7.55;;;0.20;99.90;;;;;;5055249;28;20131;-74
2021/12/03 00:28:57;;;;;;;11.98;6.95;;;0.10;99.90;;;;;;5056179;28;20048;-73
2021/12/03 00:31:24;;;;;;;14.00;7.88;;;0.10;99.90;;;;;;5055344;28;20806;-73
2021/12/03 00:33:56;;;;;;;14.52;7.05;;;0.10;99.90;;;;;;5053566;28;20041;-74
2021/12/03 00:36:23;;;;;;;11.40;6.85;;;0.10;99.90;;;;;;5052048;28;20420;-73
2021/12/03 00:38:54;;;;;;;12.45;7.60;;;0.00;99.90;;;;;;5051544;28;20045;-74
2021/12/03 00:41:34;;;;;;;11.75;7.15;;;0.00;99.90;;;;;;5051857;28;20132;-74
2021/12/03 00:44:05;;;;;;;11.70;7.28;;;0.00;99.90;;;;;;5036103;28;20087;-74
2021/12/03 00:46:37;;;;;;;10.65;6.47;;;0.00;99.90;;;;;;5052018;28;20052;-74
2021/12/03 00:49:09;;;;;;;12.10;7.07;;;-0.10;99.90;;;;;;5051800;28;20131;-73
2021/12/03 00:51:41;;;;;;;9.98;6.25;;;0.00;99.90;;;;;;5051744;28;20111;-73
2021/12/03 00:54:08;;;;;;;10.57;6.95;;;0.00;99.90;;;;;;5052126;28;20470;-73
2021/12/03 00:56:35;;;;;;;13.45;7.68;;;0.00;99.90;;;;;;5052334;28;20128;-73
2021/12/03 00:59:07;;;;;;;11.27;6.80;;;0.10;99.90;;;;;;5053159;28;20128;-73
2021/12/03 01:01:39;;;;;;;11.13;6.93;;;0.10;99.90;;;;;;5053473;28;20471;-73
2021/12/03 01:04:06;;;;;;;11.73;6.85;;;0.10;99.90;;;;;;5035747;28;20503;-73
2021/12/03 01:06:38;;;;;;;9.75;6.20;;;0.20;99.90;;;;;;5052019;28;20132;-73
2021/12/03 01:09:09;;;;;;;12.23;6.32;;;0.20;99.90;;;;;;5052885;28;20132;-73
2021/12/03 01:11:42;;;;;;;9.43;6.18;;;0.20;99.90;;;;;;5052086;28;20065;-73
2021/12/03 01:14:08;;;;;;;8.27;5.97;;;0.20;99.90;;;;;;5051955;28;20139;-73
2021/12/03 01:16:35;;;;;;;10.68;5.90;;;0.20;99.90;;;;;;5051915;28;20519;-74
2021/12/03 01:19:07;;;;;;;15.60;6.53;;;0.20;99.90;;;;;;5051618;28;20132;-74
2021/12/03 01:21:39;;;;;;;11.43;6.10;;;0.20;99.90;;;;;;5051670;28;20048;-73
2021/12/03 01:24:11;;;;;;;8.38;5.55;;;0.10;99.90;;;;;;5053043;28;20484;-73
2021/12/03 01:26:45;;;;;;;10.32;5.82;;;0.10;99.90;;;;;;5052081;28;20068;-73
2021/12/03 01:29:12;;;;;;;9.15;5.78;;;0.10;99.90;;;;;;5051266;28;20065;-73
2021/12/03 01:31:39;;;;;;;8.43;6.32;;;0.00;99.90;;;;;;5051688;28;20041;-73
2021/12/03 01:34:05;;;;;;;8.50;5.72;;;0.10;99.90;;;;;;5054644;28;20446;-73
2021/12/03 01:36:32;;;;;;;11.30;6.30;;;0.10;99.90;;;;;;5051261;28;20124;-73
2021/12/03 01:39:07;;;;;;;9.10;5.47;;;0.10;99.90;;;;;;5057852;28;20041;-75
2021/12/03 01:41:34;;;;;;;11.25;6.57;;;0.10;99.90;;;;;;5069273;28;20075;-73
2021/12/03 01:44:02;;;;;;;12.55;5.88;;;0.10;99.90;;;;;;5057793;28;20040;-73
2021/12/03 01:46:31;;;;;;;8.70;5.57;;;0.10;99.90;;;;;;5064129;28;20072;-73
2021/12/03 01:49:03;;;;;;;7.63;4.88;;;0.10;99.90;;;;;;5054874;28;20075;-77
2021/12/03 01:51:35;;;;;;;9.63;4.97;;;0.10;99.90;;;;;;5068562;28;20181;-73
2021/12/03 01:54:07;;;;;;;8.55;5.40;;;0.10;99.90;;;;;;5026866;28;20128;-73
2021/12/03 01:56:39;;;;;;;9.18;5.30;;;0.10;99.90;;;;;;5061254;28;20404;-73
2021/12/03 01:59:11;;;;;;;7.38;4.88;;;0.10;99.90;;;;;;5065532;28;20467;-73
2021/12/03 02:01:38;;;;;;;8.15;4.95;;;0.10;99.90;;;;;;5054232;28;20084;-73
2021/12/03 02:04:06;;;;;;;10.30;5.97;;;0.10;99.90;;;;;;5066242;28;20045;-73
2021/12/03 02:06:39;;;;;;;11.05;5.35;;;0.20;99.90;;;;;;5050908;28;20124;-73
2021/12/03 02:09:07;;;;;;;7.50;5.10;;;0.20;99.90;;;;;;5050493;28;20152;-73
2021/12/03 02:11:39;;;;;;;7.30;5.30;;;0.10;99.90;;;;;;5052296;28;20047;-73
2021/12/03 02:14:06;;;;;;;8.88;5.43;;;0.10;99.90;;;;;;5052481;28;20083;-74
2021/12/03 02:16:38;;;;;;;8.93;5.38;;;0.10;99.90;;;;;;5035378;28;20135;-74
2021/12/03 02:19:10;;;;;;;7.68;5.57;;;0.10;99.90;;;;;;5050904;28;20073;-73
2021/12/03 02:21:41;;;;;;;9.90;6.05;;;0.10;99.90;;;;;;5050741;28;20043;-73
2021/12/03 02:24:14;;;;;;;8.73;6.05;;;0.10;99.90;;;;;;5061453;28;20131;-73
2021/12/03 02:26:42;;;;;;;9.32;5.65;;;0.10;99.90;;;;;;5070589;28;20124;-73
2021/12/03 02:29:14;;;;;;;10.38;5.38;;;0.10;99.90;;;;;;5070053;28;20040;-73
2021/12/03 02:31:46;;;;;;;6.82;4.95;;;0.20;99.90;;;;;;5071677;28;20123;-73
2021/12/03 02:34:17;;;;;;;9.32;5.60;;;0.10;99.90;;;;;;5071173;28;20482;-73
2021/12/03 02:36:44;;;;;;;11.93;6.20;;;0.20;99.90;;;;;;5072128;28;20076;-73
2021/12/03 02:39:11;;;;;;;8.77;5.55;;;0.10;99.90;;;;;;5073413;28;20045;-73
2021/12/03 02:41:43;;;;;;;9.07;5.88;;;0.10;99.90;;;;;;5056500;28;20139;-73
2021/12/03 02:44:10;;;;;;;13.05;6.05;;;0.10;99.90;;;;;;5071188;28;20066;-74
2021/12/03 02:46:41;;;;;;;9.90;6.47;;;0.10;99.90;;;;;;5055006;28;20075;-73
2021/12/03 02:49:15;;;;;;;9.57;6.10;;;0.10;99.90;;;;;;5070532;28;20044;-73
2021/12/03 02:51:46;;;;;;;10.15;7.50;;;0.00;99.90;;;;;;5070482;28;20119;-73
2021/12/03 02:54:13;;;;;;;10.90;7.00;;;0.00;99.90;;;;;;5071898;28;20114;-73
2021/12/03 02:56:41;;;;;;;12.95;7.15;;;0.00;99.90;;;;;;5061305;28;20758;-74
2021/12/03 02:59:12;;;;;;;13.30;6.82;;;0.00;99.90;;;;;;5050245;28;20105;-73
2021/12/03 03:01:39;;;;;;;9.88;6.35;;;0.00;99.90;;;;;;5051695;28;20064;-73
2021/12/03 03:04:06;;;;;;;8.73;6.10;;;0.00;99.90;;;;;;5051541;28;20068;-73
2021/12/03 03:06:34;;;;;;;10.32;6.78;;;0.00;99.90;;;;;;5066579;28;20394;-73
2021/12/03 03:09:03;;;;;;;9.05;5.88;;;0.00;99.90;;;;;;5071174;28;20124;-74
2021/12/03 03:11:29;;;;;;;10.20;6.45;;;-0.10;99.90;;;;;;5054387;28;20087;-73
2021/12/03 03:13:56;;;;;;;8.00;5.85;;;-0.10;99.90;;;;;;5050447;28;20560;-73
2021/12/03 03:16:23;;;;;;;9.02;6.50;;;-0.10;99.90;;;;;;5033738;28;20087;-73
2021/12/03 03:18:55;;;;;;;10.40;6.60;;;-0.10;99.90;;;;;;5034121;28;20418;-74
2021/12/03 03:21:28;;;;;;;12.20;6.38;;;-0.10;99.90;;;;;;5050088;28;20041;-73
2021/12/03 03:24:00;;;;;;;8.75;6.43;;;-0.10;99.90;;;;;;5050366;28;20543;-73
2021/12/03 03:26:32;;;;;;;9.05;5.50;;;-0.10;99.90;;;;;;5051375;28;20127;-73
2021/12/03 03:29:06;;;;;;;8.32;5.80;;;-0.10;99.90;;;;;;5051439;28;20508;-73
2021/12/03 03:31:41;;;;;;;9.07;5.70;;;-0.10;99.90;;;;;;5048991;28;20131;-73
2021/12/03 03:34:14;;;;;;;9.75;5.70;;;-0.20;99.90;;;;;;5050975;28;20123;-73
2021/12/03 03:36:45;;;;;;;8.93;6.40;;;-0.20;99.90;;;;;;5051161;28;20574;-73
2021/12/03 03:39:17;;;;;;;8.93;5.70;;;-0.20;99.90;;;;;;5050598;28;20128;-73
2021/12/03 03:41:49;;;;;;;8.95;6.05;;;-0.20;99.90;;;;;;5050982;28;20128;-73
2021/12/03 03:44:22;;;;;;;9.25;5.68;;;-0.20;99.90;;;;;;5050974;28;20047;-73
2021/12/03 03:46:56;;;;;;;9.77;5.95;;;-0.20;99.90;;;;;;5050759;28;20492;-74
2021/12/03 03:49:28;;;;;;;;;;;-0.20;99.90;;;;;;5051071;28;20087;-73
2021/12/03 03:52:02;;;;;;;8.57;5.50;;;-0.20;99.90;;;;;;5050673;28;19921;-73
2021/12/03 03:54:33;;;;;;;9.85;6.10;;;-0.20;99.90;;;;;;5049692;28;20128;-73
2021/12/03 03:57:05;;;;;;;10.30;5.70;;;-0.20;99.90;;;;;;5049612;28;20056;-74
2021/12/03 03:59:32;;;;;;;10.00;6.32;;;-0.20;99.90;;;;;;5049082;28;20266;-73
2021/12/03 04:02:04;;;;;;;8.80;6.10;;;-0.20;99.90;;;;;;5049595;28;20045;-73
2021/12/03 04:04:36;;;;;;;10.00;6.25;;;-0.10;99.90;;;;;;5050762;28;20068;-73
2021/12/03 04:07:03;;;;;;;10.02;5.22;;;-0.20;99.90;;;;;;5050621;28;20112;-73
2021/12/03 04:09:30;;;;;;;11.68;6.63;;;-0.10;99.90;;;;;;5049782;28;20479;-73
2021/12/03 04:12:03;;;;;;;8.63;5.85;;;-0.20;99.90;;;;;;5053288;28;20535;-73
2021/12/03 04:14:34;;;;;;;11.55;5.97;;;-0.20;99.90;;;;;;5037347;28;20136;-73
2021/12/03 04:17:06;;;;;;;8.63;5.70;;;-0.20;99.90;;;;;;5054376;28;20571;-73
2021/12/03 04:19:38;;;;;;;11.18;6.32;;;-0.20;99.90;;;;;;5052803;28;20047;-73
2021/12/03 04:22:05;;;;;;;7.82;5.13;;;-0.20;99.90;;;;;;5036421;28;20060;-74
2021/12/03 04:24:37;;;;;;;9.25;5.68;;;-0.20;99.90;;;;;;5037048;28;20567;-74
2021/12/03 04:27:04;;;;;;;7.78;5.28;;;-0.20;99.90;;;;;;5053381;28;20124;-74
2021/12/03 04:29:36;;;;;;;10.48;6.03;;;-0.20;99.90;;;;;;5052345;28;20045;-73
2021/12/03 04:32:08;;;;;;;9.60;6.07;;;-0.20;99.90;;;;;;5054055;28;20453;-73
2021/12/03 04:34:40;;;;;;;9.30;5.55;;;-0.20;99.90;;;;;;5052976;28;20112;-74
2021/12/03 04:37:07;;;;;;;14.63;7.38;;;-0.30;99.90;;;;;;5052788;28;20080;-74
2021/12/03 04:39:39;;;;;;;10.30;5.82;;;-0.30;99.90;;;;;;5052405;28;20056;-74
2021/12/03 04:42:11;;;;;;;10.13;5.63;;;-0.30;99.90;;;;;;5052565;28;20144;-74
2021/12/03 04:44:43;;;;;;;9.73;5.85;;;-0.30;99.90;;;;;;5052801;28;20507;-74
2021/12/03 04:47:15;;;;;;;9.57;6.32;;;-0.30;99.90;;;;;;5053915;28;20041;-74
2021/12/03 04:49:41;;;;;;;11.23;6.40;;;-0.30;99.90;;;;;;5053262;28;20159;-72
2021/12/03 04:52:13;;;;;;;12.75;6.32;;;-0.30;99.90;;;;;;5051907;28;20040;-74
2021/12/03 04:54:45;;;;;;;11.93;6.78;;;-0.30;99.90;;;;;;5053372;28;20127;-74
2021/12/03 04:57:12;;;;;;;10.98;6.43;;;-0.30;99.90;;;;;;5051913;28;20135;-74
2021/12/03 04:59:39;;;;;;;11.88;6.68;;;-0.30;99.90;;;;;;5051488;28;20049;-73
2021/12/03 05:02:06;;;;;;;9.23;6.40;;;-0.30;99.90;;;;;;5056385;28;20135;-74
2021/12/03 05:04:37;;;;;;;12.10;6.82;;;-0.30;99.90;;;;;;5067687;28;20097;-72
2021/12/03 05:07:17;;;;;;;10.18;7.05;;;-0.30;99.90;;;;;;5041297;28;20182;-74
2021/12/03 05:09:48;;;;;;;9.85;6.13;;;-0.30;99.90;;;;;;5060423;28;20127;-76
2021/12/03 05:12:16;;;;;;;9.95;6.22;;;-0.30;99.90;;;;;;5035299;28;20075;-76
2021/12/03 05:14:43;;;;;;;9.68;6.43;;;-0.30;99.90;;;;;;5051860;28;20136;-72
2021/12/03 05:17:15;;;;;;;10.55;5.78;;;-0.30;99.90;;;;;;5045907;28;20055;-74
2021/12/03 05:19:42;;;;;;;12.55;6.75;;;-0.30;99.90;;;;;;5047415;28;20166;-74
2021/12/03 05:22:10;;;;;;;10.68;6.55;;;-0.30;99.90;;;;;;5070855;28;20060;-72
2021/12/03 05:24:37;;;;;;;9.90;6.38;;;-0.20;99.90;;;;;;5076306;28;20484;-74
2021/12/03 05:27:04;;;;;;;10.07;6.35;;;-0.20;99.90;;;;;;5054352;28;20045;-73
2021/12/03 05:29:31;;;;;;;11.80;6.57;;;-0.30;99.90;;;;;;5070545;28;20174;-74
2021/12/03 05:32:03;;;;;;;12.40;7.05;;;-0.20;99.90;;;;;;5070710;28;20135;-74
2021/12/03 05:34:30;;;;;;;12.63;6.32;;;-0.20;99.90;;;;;;5071431;28;20127;-75
2021/12/03 05:37:03;;;;;;;12.18;6.85;;;-0.20;99.90;;;;;;5074763;28;20080;-73
2021/12/03 05:39:30;;;;;;;11.63;6.97;;;-0.20;99.90;;;;;;5056156;28;20048;-74
2021/12/03 05:42:03;;;;;;;10.50;6.45;;;-0.20;99.90;;;;;;5072276;28;20044;-74
2021/12/03 05:44:30;;;;;;;11.80;6.43;;;-0.20;99.90;;;;;;5071229;28;20155;-74
2021/12/03 05:46:58;;;;;;;13.27;6.88;;;-0.20;99.90;;;;;;5071910;28;20064;-72
2021/12/03 05:49:30;;;;;;;8.35;5.10;;;-0.20;99.90;;;;;;5069472;28;20483;-74
2021/12/03 05:52:02;;;;;;;10.52;6.70;;;-0.10;99.90;;;;;;5072022;28;20119;-74
2021/12/03 05:54:29;;;;;;;10.10;6.88;;;-0.20;99.90;;;;;;5054792;28;20567;-74
2021/12/03 05:56:56;;;;;;;11.57;6.75;;;-0.20;99.90;;;;;;5063299;28;20068;-74
2021/12/03 05:59:29;;;;;;;10.82;6.57;;;-0.20;99.90;;;;;;5034116;28;20051;-72
2021/12/03 06:02:02;;;;;;;8.52;6.05;;;-0.20;99.90;;;;;;5050358;28;20069;-74
2021/12/03 06:04:34;;;;;;;12.82;6.78;;;-0.20;99.90;;;;;;5049828;28;20044;-71
2021/12/03 06:07:07;;;;;;;10.95;7.03;;;-0.20;99.90;;;;;;5034273;28;20540;-74
2021/12/03 06:09:35;;;;;;;9.38;6.05;;;-0.20;99.90;;;;;;5033271;28;20079;-73
2021/12/03 06:12:02;;;;;;;9.60;5.75;;;-0.20;99.90;;;;;;5050325;28;20132;-74
2021/12/03 06:14:29;;;;;;;8.38;5.55;;;-0.20;99.90;;;;;;5050125;28;20113;-73
2021/12/03 06:17:01;;;;;;;10.65;6.25;;;-0.20;99.90;;;;;;5034369;28;20085;-73
2021/12/03 06:19:33;;;;;;;10.00;6.93;;;-0.20;99.90;;;;;;5034299;28;20320;-74
2021/12/03 06:22:05;;;;;;;9.90;6.40;;;-0.30;99.90;;;;;;5049852;28;20499;-74
2021/12/03 06:24:38;;;;;;;9.27;6.28;;;-0.30;99.90;;;;;;5050533;28;20131;-74
2021/12/03 06:27:05;;;;;;;9.05;6.47;;;-0.30;99.90;;;;;;5049639;28;20120;-74
2021/12/03 06:29:32;;;;;;;9.70;5.78;;;-0.30;99.90;;;;;;5050338;28;20048;-74
2021/12/03 06:32:05;;;;;;;9.80;6.00;;;-0.30;99.90;;;;;;5051035;28;20040;-73
2021/12/03 06:34:37;;;;;;;9.10;6.28;;;-0.40;99.90;;;;;;5051100;28;20478;-73
2021/12/03 06:37:06;;;;;;;9.90;6.50;;;-0.40;99.90;;;;;;5050279;28;20072;-74
2021/12/03 06:39:38;;;;;;;11.68;6.93;;;-0.50;99.90;;;;;;5039997;28;20032;-73
2021/12/03 06:42:05;;;;;;;10.18;6.07;;;-0.50;99.90;;;;;;5040583;28;20381;-74
2021/12/03 06:44:37;;;;;;;12.88;8.18;;;-0.60;99.90;;;;;;5043252;28;20114;-73
2021/12/03 06:47:09;;;;;;;12.70;6.65;;;-0.70;99.90;;;;;;5028553;28;20502;-73
2021/12/03 06:49:41;;;;;;;10.40;7.07;;;-0.70;99.90;;;;;;5031999;28;20587;-73
2021/12/03 06:52:15;;;;;;;14.18;7.78;;;-0.70;99.90;;;;;;5045734;28;20041;-73
2021/12/03 06:54:43;;;;;;;12.20;6.88;;;-0.70;99.90;;;;;;5041190;28;20117;-73
2021/12/03 06:57:15;;;;;;;6.93;4.77;;;-0.80;99.90;;;;;;5029570;28;20037;-73
2021/12/03 06:59:42;;;;;;;11.05;7.25;;;-0.80;99.90;;;;;;5040513;28;20399;-73
2021/12/03 07:02:14;;;;;;;12.75;8.38;;;-0.80;99.90;;;;;;5049457;28;20064;-73
2021/12/03 07:04:45;;;;;;;13.30;7.95;;;-0.80;99.90;;;;;;5049341;28;20472;-73
2021/12/03 07:07:17;;;;;;;10.60;7.65;;;-0.90;99.90;;;;;;5049754;28;20136;-74
2021/12/03 07:09:49;;;;;;;13.63;8.45;;;-0.90;99.90;;;;;;5031290;28;20041;-73
2021/12/03 07:12:21;;;;;;;11.50;7.03;;;-0.90;99.90;;;;;;5033795;28;20126;-73
2021/12/03 07:14:53;;;;;;;11.43;7.60;;;-0.80;99.90;;;;;;5037093;28;20121;-73
2021/12/03 07:17:30;;;;;;;15.43;8.93;;;-0.80;99.90;;;;;;5048666;28;20128;-73
2021/12/03 07:20:03;;;;;;;10.73;6.47;;;-0.80;99.90;;;;;;5036508;28;20056;-73
2021/12/03 07:22:35;;;;;;;11.82;7.32;;;-0.90;99.90;;;;;;5044241;28;20043;-73
2021/12/03 07:25:07;;;;;;;11.15;6.63;;;-0.90;99.90;;;;;;5040476;28;20060;-73
2021/12/03 07:27:34;;;;;;;14.13;7.38;;;-0.80;99.90;;;;;;5053636;28;20131;-73
2021/12/03 07:30:07;;;;;;;11.80;7.57;;;-0.80;99.90;;;;;;5049449;28;20555;-73
2021/12/03 07:32:38;;;;;;;11.23;7.37;;;-0.90;99.90;;;;;;5035250;28;20124;-73
2021/12/03 07:35:07;;;;;;;10.73;7.05;;;-0.90;99.90;;;;;;5046568;28;20071;-73
2021/12/03 07:37:34;;;;;;;11.52;6.80;;;-0.90;99.90;;;;;;5065870;28;20464;-73
2021/12/03 07:40:08;;;;;;;11.23;7.05;;;-0.90;99.90;;;;;;5053487;28;20040;-73
2021/12/03 07:42:40;;;;;;;11.07;7.05;;;-0.90;99.90;;;;;;5060593;28;20127;-73
2021/12/03 07:45:12;;;;;;;12.07;7.75;;;-0.90;99.90;;;;;;5049502;28;20045;-73
2021/12/03 07:47:39;;;;;;;9.40;6.40;;;-0.90;99.90;;;;;;5050296;28;20141;-73
2021/12/03 07:50:12;;;;;;;10.95;6.55;;;-0.90;99.90;;;;;;5041242;28;20124;-73
2021/12/03 07:52:44;;;;;;;12.48;6.60;;;-0.90;99.90;;;;;;5052084;28;20171;-73
2021/12/03 07:55:11;;;;;;;11.55;7.13;;;-0.90;99.90;;;;;;5052381;28;20074;-73
2021/12/03 07:57:42;;;;;;;11.70;6.57;;;-0.90;99.90;;;;;;5046072;28;20123;-74
2021/12/03 08:00:15;;;;;;;12.50;6.70;;;-0.90;99.90;;;;;;5040545;28;20146;-73
2021/12/03 08:02:46;;;;;;;11.15;6.63;;;-0.90;99.90;;;;;;5047534;28;20421;-74
2021/12/03 08:05:13;;;;;;;10.82;7.22;;;-0.90;99.90;;;;;;5050151;28;20254;-73
2021/12/03 08:07:47;;;;;;;10.50;5.93;;;-0.80;99.90;;;;;;5051957;28;20124;-73
2021/12/03 08:10:15;;;;;;;11.98;6.55;;;-0.80;99.90;;;;;;5044019;28;20116;-73
2021/12/03 08:12:47;;;;;;;10.68;6.32;;;-0.80;99.90;;;;;;5043831;28;20543;-73
2021/12/03 08:15:19;;;;;;;9.88;6.25;;;-0.80;99.90;;;;;;5032540;28;20037;-73
2021/12/03 08:17:51;;;;;;;11.18;6.68;;;-0.70;99.90;;;;;;5057886;28;20103;-74
2021/12/03 08:20:23;;;;;;;12.68;6.50;;;-0.70;99.90;;;;;;5047571;28;20054;-73
2021/12/03 08:22:54;;;;;;;11.82;6.88;;;-0.70;99.90;;;;;;5059300;28;20135;-73
2021/12/03 08:25:27;;;;;;;8.90;6.28;;;-0.60;99.90;;;;;;5044073;28;20140;-73
2021/12/03 08:27:54;;;;;;;8.40;6.03;;;-0.60;99.90;;;;;;5039959;28;20467;-74
2021/12/03 08:30:25;;;;;;;9.63;7.32;;;-0.70;99.90;;;;;;5045617;28;20090;-73
2021/12/03 08:32:58;;;;;;;9.18;6.25;;;-0.60;99.90;;;;;;5031140;28;20519;-74
2021/12/03 08:35:25;;;;;;;10.40;6.68;;;-0.60;99.90;;;;;;5052264;28;20041;-74
2021/12/03 08:37:58;;;;;;;8.85;5.97;;;-0.60;99.90;;;;;;5051524;28;20570;-74
2021/12/03 08:40:30;;;;;;;8.60;6.07;;;-0.50;99.90;;;;;;5036499;28;20045;-74
2021/12/03 08:42:56;;;;;;;8.98;5.80;;;-0.50;99.90;;;;;;5051748;28;20504;-73
2021/12/03 08:45:28;;;;;;;10.90;6.38;;;-0.50;99.90;;;;;;5032231;28;20132;-73
2021/12/03 08:48:01;;;;;;;9.65;6.32;;;-0.40;99.90;;;;;;5053084;28;20091;-74
2021/12/03 08:50:47;;;;;;;9.27;6.03;;;-0.40;99.90;;;;;;5063085;28;20037;-73
2021/12/03 08:54:48;;;;;;;10.70;6.90;;;-0.40;99.90;;;;;;5053332;28;20458;-74
2021/12/03 08:56:13;;;;;;;11.52;5.90;;;-0.40;99.90;;;;;;5045321;28;20491;-74
2021/12/03 08:58:40;;;;;;;8.82;6.15;;;-0.40;99.90;;;;;;5042618;28;20087;-73
2021/12/03 09:01:13;;;;;;;9.55;6.10;;;-0.40;99.90;;;;;;5066954;28;20051;-73
2021/12/03 09:03:40;;;;;;;9.20;5.85;;;-0.30;99.90;;;;;;5056026;28;20040;-73
2021/12/03 09:06:12;;;;;;;8.80;5.07;;;-0.20;99.90;;;;;;5040472;28;20091;-73
2021/12/03 09:08:44;;;;;;;8.10;6.43;;;-0.20;99.90;;;;;;5038078;28;20065;-73
2021/12/03 09:11:11;;;;;;;14.88;9.85;;;-0.20;99.90;;;;;;5035025;28;20102;-73
2021/12/03 09:13:45;;;;;;;7.97;5.80;;;-0.30;99.90;;;;;;5045165;28;20530;-73
2021/12/03 09:16:19;;;;;;;10.40;6.40;;;-0.20;99.90;;;;;;5052606;28;20033;-73
2021/12/03 09:18:52;;;;;;;9.32;5.47;;;-0.20;99.90;;;;;;5052082;28;20094;-73
2021/12/03 09:21:29;;;;;;;9.00;5.43;;;-0.20;99.90;;;;;;5051636;28;20040;-74
2021/12/03 09:26:33;;;;;;;7.28;5.43;;;-0.10;99.90;;;;;;5052859;28;20396;-74
2021/12/03 09:29:10;;;;;;;;;;;-0.10;99.90;;;;;;5060874;28;20399;-74
2021/12/03 09:31:40;;;;;;;9.23;4.70;;;-0.10;99.90;;;;;;5050385;28;19959;-73
2021/12/03 09:34:10;;;;;;;10.65;5.30;;;-0.10;99.90;;;;;;5045277;28;20515;-72
2021/12/03 09:36:42;;;;;;;9.30;6.28;;;0.00;99.90;;;;;;5048024;28;20083;-72
2021/12/03 09:39:15;;;;;;;9.52;5.93;;;0.00;99.90;;;;;;5042923;28;20522;-73
2021/12/03 09:41:48;;;;;;;7.40;4.57;;;0.00;99.90;;;;;;5039609;28;20094;-73
2021/12/03 09:44:20;;;;;;;7.40;4.93;;;0.10;99.90;;;;;;5049063;28;20048;-72
2021/12/03 09:46:53;;;;;;;8.15;4.53;;;0.10;99.90;;;;;;5051468;28;20515;-72
2021/12/03 09:49:38;;;;;;;6.03;4.65;;;0.10;99.90;;;;;;5042706;28;20048;-72
2021/12/03 09:52:27;;;;;;;7.50;5.15;;;0.20;99.90;;;;;;5043002;28;20037;-72
2021/12/03 09:55:08;;;;;;;9.15;7.57;;;0.30;99.90;;;;;;5032550;28;20092;-72
2021/12/03 09:58:06;;;;;;;5.75;4.22;;;0.30;99.90;;;;;;5050716;28;20044;-74
2021/12/03 10:01:03;;;;;;;7.20;4.28;;;0.30;99.90;;;;;;5071889;28;20102;-72
2021/12/03 10:04:15;;;;;;;7.50;4.80;;;0.30;99.90;;;;;;5071215;28;20109;-70
2021/12/03 10:08:04;;;;;;;10.60;4.70;;;0.30;99.90;;;;;;5071556;28;20060;-71
2021/12/03 10:15:26;;;;;;;7.97;4.95;;;0.40;99.90;;;;;;5070686;28;20048;-72
2021/12/03 10:18:18;;;;;;;7.30;4.53;;;0.40;99.90;;;;;;5070893;28;20037;-72
2021/12/03 10:21:03;;;;;;;7.57;5.13;;;0.50;99.90;;;;;;5054943;28;20498;-72
2021/12/03 10:32:39;;;;;;;5.13;3.67;;;0.60;99.90;;;;;;5071859;28;20044;-73
2021/12/03 10:38:27;;;;;;;6.80;4.70;;;0.80;99.90;;;;;;5031711;28;20045;-72
2021/12/03 11:17:26;;;;;;;6.95;5.20;;;0.50;99.90;;;;;;5041275;28;20044;-72
2021/12/03 12:15:55;;;;;;;7.70;5.00;;;1.30;99.90;;;;;;5028331;28;20107;-72
2021/12/03 13:12:05;;;;;;;7.22;4.43;;;1.20;99.90;;;;;;5050962;28;20107;-73
2021/12/03 13:28:44;;;;;;;5.50;3.78;;;1.20;99.90;;;;;;5052324;28;20064;-72
2021/12/03 13:35:22;;;;;;;8.73;4.88;;;1.20;99.90;;;;;;5050813;28;20451;-73
2021/12/03 13:38:30;;;;;;;7.80;5.00;;;1.30;99.90;;;;;;5051602;28;20130;-73
2021/12/03 14:44:31;;;;;;;7.10;3.88;;;0.80;99.90;;;;;;5049096;28;20139;-73
2021/12/03 14:50:32;;;;;;;6.82;4.32;;;0.70;99.90;;;;;;5049023;28;20116;-73
2021/12/03 14:56:03;;;;;;;6.03;3.20;;;0.70;99.90;;;;;;5049901;28;20110;-73
2021/12/03 15:01:17;;;;;;;5.50;3.90;;;0.60;99.90;;;;;;5050629;28;20376;-73
2021/12/03 15:04:21;;;;;;;6.60;3.88;;;0.50;99.90;;;;;;5048501;28;20102;-74
2021/12/03 15:12:43;;;;;;;8.15;5.00;;;0.50;99.90;;;;;;5049247;28;20131;-72
2021/12/03 15:23:08;;;;;;;10.15;4.70;;;0.30;99.90;;;;;;5048155;28;20072;-73
2021/12/03 15:25:55;;;;;;;8.50;4.45;;;0.20;99.90;;;;;;5048068;28;20049;-73
2021/12/03 15:29:01;;;;;;;6.53;4.32;;;0.30;99.90;;;;;;5047576;28;20068;-70
2021/12/03 15:37:24;;;;;;;5.93;4.13;;;0.20;99.90;;;;;;5049382;28;20087;-73
2021/12/03 16:24:46;;;;;;;6.30;4.63;;;0.10;99.90;;;;;;5050513;28;20100;-73
2021/12/03 16:46:25;;;;;;;6.20;4.15;;;0.00;99.90;;;;;;5050966;28;20033;-72
2021/12/03 16:49:53;;;;;;;7.22;5.03;;;0.00;99.90;;;;;;5050692;28;20091;-72
2021/12/03 16:51:54;;;;;;;5.30;4.22;;;0.00;99.90;;;;;;5049655;28;20041;-73
2021/12/03 16:54:30;;;;;;;10.45;6.00;;;0.00;99.90;;;;;;5050415;28;20049;-72
2021/12/03 16:56:57;;;;;;;7.63;5.30;;;0.00;99.90;;;;;;5050347;28;20036;-73
2021/12/03 16:59:31;;;;;;;9.68;6.13;;;-0.10;99.90;;;;;;5052177;28;20503;-73
2021/12/03 17:02:06;;;;;;;8.00;4.72;;;-0.10;99.90;;;;;;5032804;28;20048;-73
2021/12/03 17:05:03;;;;;;;8.88;5.35;;;-0.10;99.90;;;;;;5042112;28;20049;-70
2021/12/03 17:10:40;;;;;;;8.95;5.72;;;-0.10;99.90;;;;;;5049361;28;20057;-73
2021/12/03 17:56:52;;;;;;;9.73;5.63;;;-0.20;99.90;;;;;;5052279;28;20464;-74
2021/12/03 17:59:36;;;;;;;7.93;5.53;;;-0.30;99.90;;;;;;5051974;28;20127;-74
2021/12/03 18:54:20;;;;;;;10.13;6.80;;;-0.40;99.90;;;;;;5049929;28;20079;-75
2021/12/03 18:56:52;;;;;;;10.52;6.60;;;-0.40;99.90;;;;;;5049921;28;20041;-71
2021/12/03 18:59:26;;;;;;;13.68;8.02;;;-0.40;99.90;;;;;;5049977;28;20459;-74
2021/12/03 19:01:53;;;;;;;13.50;8.30;;;-0.40;99.90;;;;;;5050197;28;20052;-74
2021/12/03 19:04:37;;;;;;;15.00;8.32;;;-0.40;99.90;;;;;;5050072;28;20143;-74
2021/12/03 19:07:15;;;;;;;13.95;8.48;;;-0.40;99.90;;;;;;5051423;28;20120;-75
2021/12/03 19:09:51;;;;;;;13.07;6.88;;;-0.40;99.90;;;;;;5049689;28;20041;-74
2021/12/03 19:12:22;;;;;;;10.68;6.90;;;-0.50;99.90;;;;;;5050329;28;20534;-72
2021/12/03 19:14:57;;;;;;;11.52;7.00;;;-0.50;99.90;;;;;;5049462;28;20559;-73
2021/12/03 19:17:36;;;;;;;11.10;7.30;;;-0.50;99.90;;;;;;5050660;28;20555;-72
2021/12/03 19:20:13;;;;;;;11.20;6.15;;;-0.50;99.90;;;;;;5048965;28;20068;-72
2021/12/03 19:22:45;;;;;;;30.77;17.45;;;-0.50;99.90;;;;;;5050470;28;20136;-72
2021/12/03 19:25:17;;;;;;;12.93;8.63;;;-0.50;99.90;;;;;;5033416;28;20131;-72
2021/12/03 19:27:49;;;;;;;12.35;8.65;;;-0.50;99.90;;;;;;5050515;28;20124;-73
2021/12/03 19:30:16;;;;;;;11.10;8.45;;;-0.60;99.90;;;;;;5049065;28;20069;-71
2021/12/03 19:32:48;;;;;;;15.48;10.18;;;-0.60;99.90;;;;;;5050317;28;20503;-73
2021/12/03 19:35:15;;;;;;;15.60;9.60;;;-0.60;99.90;;;;;;5050398;28;20120;-72
2021/12/03 19:37:50;;;;;;;14.65;8.52;;;-0.60;99.90;;;;;;5050367;28;20056;-71
2021/12/03 19:40:23;;;;;;;13.00;8.25;;;-0.70;99.90;;;;;;5050923;28;20079;-72
2021/12/03 19:43:04;;;;;;;11.50;8.32;;;-0.70;99.90;;;;;;5053097;28;20099;-73
2021/12/03 19:45:44;;;;;;;13.70;7.75;;;-0.70;99.90;;;;;;5054162;28;20043;-71
2021/12/03 19:48:16;;;;;;;12.25;8.35;;;-0.70;99.90;;;;;;5036841;28;20148;-72
2021/12/03 19:50:55;;;;;;;13.40;7.80;;;-0.70;99.90;;;;;;5052615;28;20128;-73
2021/12/03 19:53:28;;;;;;;10.43;7.03;;;-0.70;99.90;;;;;;5052733;28;20140;-72
2021/12/03 19:55:55;;;;;;;9.23;6.55;;;-0.70;99.90;;;;;;5054840;28;20037;-74
2021/12/03 19:58:27;;;;;;;9.98;7.28;;;-0.70;99.90;;;;;;5054716;28;20472;-73
2021/12/03 20:00:59;;;;;;;11.30;6.57;;;-0.70;99.90;;;;;;5052245;28;20132;-73
2021/12/03 20:03:26;;;;;;;9.93;5.93;;;-0.70;99.90;;;;;;5052667;28;20488;-72
2021/12/03 20:05:57;;;;;;;9.73;6.22;;;-0.60;99.90;;;;;;5052661;28;20087;-73
2021/12/03 20:08:30;;;;;;;9.00;6.40;;;-0.60;99.90;;;;;;5052541;28;20123;-72
2021/12/03 20:11:05;;;;;;;7.13;5.32;;;-0.60;99.90;;;;;;5036169;28;20438;-72
2021/12/03 20:13:32;;;;;;;10.07;5.35;;;-0.60;99.90;;;;;;5035985;28;20144;-73
2021/12/03 20:16:22;;;;;;;7.43;4.20;;;-0.60;99.90;;;;;;5057571;28;20077;-72
2021/12/03 20:21:52;;;;;;;7.03;4.97;;;-0.60;99.90;;;;;;5053564;28;20135;-72
2021/12/03 20:24:33;;;;;;;7.82;5.72;;;-0.60;99.90;;;;;;5053355;28;20064;-72
2021/12/03 20:27:11;;;;;;;10.38;5.57;;;-0.60;99.90;;;;;;5052447;28;20135;-72
2021/12/03 20:32:35;;;;;;;7.70;5.05;;;-0.70;99.90;;;;;;5053547;28;20107;-72
2021/12/03 20:35:21;;;;;;;6.28;4.68;;;-0.70;99.90;;;;;;5052048;28;20040;-72
2021/12/03 20:37:56;;;;;;;4.65;3.75;;;-0.70;99.90;;;;;;5052073;28;20049;-72